sensor_id;sensor_type;location;lat;lon;timestamp;P1;durP1;ratioP1;P2;durP2;ratioP2
23362;SDS011;11853;48.080;11.960;2023-02-26T00:01:18;1.10;;;1.10;;
23362;SDS011;11853;48.080;11.960;2023-02-26T00:03:48;1.08;;;0.98;;
23362;SDS011;11853;48.080;11.960;2023-02-26T00:06:15;1.52;;;1.30;;
23362;SDS011;11853;48.080;11.960;2023-02-26T00:08:41;1.67;;;1.58;;
23362;SDS011;11853;48.080;11.960;2023-02-26T00:11:07;1.00;;;1.00;;
23362;SDS011;11853;48.080;11.960;2023-02-26T00:13:34;1.23;;;1.13;;
23362;SDS011;11853;48.080;11.960;2023-02-26T00:16:02;1.27;;;1.02;;
23362;SDS011;11853;48.080;11.960;2023-02-26T00:18:30;1.00;;;1.00;;
23362;SDS011;11853;48.080;11.960;2023-02-26T00:20:56;1.02;;;1.02;;
23362;SDS011;11853;48.080;11.960;2023-02-26T00:23:22;1.10;;;1.10;;
23362;SDS011;11853;48.080;11.960;2023-02-26T00:25:48;0.95;;;0.95;;
23362;SDS011;11853;48.080;11.960;2023-02-26T00:28:14;1.23;;;1.23;;
23362;SDS011;11853;48.080;11.960;2023-02-26T00:30:40;1.63;;;1.52;;
23362;SDS011;11853;48.080;11.960;2023-02-26T00:33:06;2.03;;;1.80;;
23362;SDS011;11853;48.080;11.960;2023-02-26T00:35:35;2.00;;;1.90;;
23362;SDS011;11853;48.080;11.960;2023-02-26T00:43:18;1.88;;;1.77;;
23362;SDS011;11853;48.080;11.960;2023-02-26T00:45:53;2.70;;;2.50;;
23362;SDS011;11853;48.080;11.960;2023-02-26T00:56:30;2.20;;;2.10;;
23362;SDS011;11853;48.080;11.960;2023-02-26T00:58:55;2.40;;;2.20;;
23362;SDS011;11853;48.080;11.960;2023-02-26T01:01:23;2.15;;;2.05;;
23362;SDS011;11853;48.080;11.960;2023-02-26T01:03:49;2.35;;;2.15;;
23362;SDS011;11853;48.080;11.960;2023-02-26T01:06:16;2.50;;;2.30;;
23362;SDS011;11853;48.080;11.960;2023-02-26T01:08:51;2.03;;;1.92;;
23362;SDS011;11853;48.080;11.960;2023-02-26T01:11:24;2.03;;;1.92;;
23362;SDS011;11853;48.080;11.960;2023-02-26T01:13:49;1.80;;;1.70;;
23362;SDS011;11853;48.080;11.960;2023-02-26T01:16:18;2.53;;;2.00;;
23362;SDS011;11853;48.080;11.960;2023-02-26T01:21:41;2.00;;;1.90;;
23362;SDS011;11853;48.080;11.960;2023-02-26T01:24:14;3.05;;;2.17;;
23362;SDS011;11853;48.080;11.960;2023-02-26T01:26:42;2.10;;;2.00;;
23362;SDS011;11853;48.080;11.960;2023-02-26T01:29:08;2.00;;;1.90;;
23362;SDS011;11853;48.080;11.960;2023-02-26T01:31:41;2.00;;;1.83;;
23362;SDS011;11853;48.080;11.960;2023-02-26T01:37:09;2.00;;;1.90;;
23362;SDS011;11853;48.080;11.960;2023-02-26T01:40:02;2.10;;;2.00;;
23362;SDS011;11853;48.080;11.960;2023-02-26T01:42:56;2.00;;;1.90;;
23362;SDS011;11853;48.080;11.960;2023-02-26T01:45:34;2.00;;;1.90;;
23362;SDS011;11853;48.080;11.960;2023-02-26T01:48:17;2.17;;;2.08;;
23362;SDS011;11853;48.080;11.960;2023-02-26T01:51:06;1.95;;;1.85;;
23362;SDS011;11853;48.080;11.960;2023-02-26T01:53:33;2.67;;;1.60;;
23362;SDS011;11853;48.080;11.960;2023-02-26T01:56:03;2.30;;;2.20;;
23362;SDS011;11853;48.080;11.960;2023-02-26T01:58:35;1.80;;;1.70;;
23362;SDS011;11853;48.080;11.960;2023-02-26T02:01:02;2.47;;;2.28;;
23362;SDS011;11853;48.080;11.960;2023-02-26T02:03:29;1.95;;;1.85;;
23362;SDS011;11853;48.080;11.960;2023-02-26T02:06:05;2.00;;;1.88;;
23362;SDS011;11853;48.080;11.960;2023-02-26T02:08:39;2.20;;;2.00;;
23362;SDS011;11853;48.080;11.960;2023-02-26T02:11:06;1.92;;;1.80;;
23362;SDS011;11853;48.080;11.960;2023-02-26T02:13:58;1.98;;;1.88;;
23362;SDS011;11853;48.080;11.960;2023-02-26T02:19:23;1.83;;;1.73;;
23362;SDS011;11853;48.080;11.960;2023-02-26T02:36:41;2.00;;;1.90;;
23362;SDS011;11853;48.080;11.960;2023-02-26T02:39:22;1.90;;;1.80;;
23362;SDS011;11853;48.080;11.960;2023-02-26T02:41:57;1.83;;;1.73;;
23362;SDS011;11853;48.080;11.960;2023-02-26T02:44:43;1.98;;;1.88;;
23362;SDS011;11853;48.080;11.960;2023-02-26T02:47:17;2.20;;;2.10;;
23362;SDS011;11853;48.080;11.960;2023-02-26T02:49:53;2.00;;;1.65;;
23362;SDS011;11853;48.080;11.960;2023-02-26T02:52:44;1.98;;;1.88;;
23362;SDS011;11853;48.080;11.960;2023-02-26T02:55:35;1.95;;;1.75;;
23362;SDS011;11853;48.080;11.960;2023-02-26T02:58:07;2.58;;;2.10;;
23362;SDS011;11853;48.080;11.960;2023-02-26T03:00:41;2.08;;;1.92;;
23362;SDS011;11853;48.080;11.960;2023-02-26T03:03:23;2.08;;;1.90;;
23362;SDS011;11853;48.080;11.960;2023-02-26T03:05:58;2.40;;;1.98;;
23362;SDS011;11853;48.080;11.960;2023-02-26T03:08:27;2.28;;;2.05;;
23362;SDS011;11853;48.080;11.960;2023-02-26T03:10:57;1.95;;;1.85;;
23362;SDS011;11853;48.080;11.960;2023-02-26T03:13:23;2.72;;;1.75;;
23362;SDS011;11853;48.080;11.960;2023-02-26T03:16:00;2.63;;;1.77;;
23362;SDS011;11853;48.080;11.960;2023-02-26T03:24:26;4.63;;;2.13;;
23362;SDS011;11853;48.080;11.960;2023-02-26T03:26:57;2.03;;;1.83;;
23362;SDS011;11853;48.080;11.960;2023-02-26T03:35:28;1.92;;;1.80;;
23362;SDS011;11853;48.080;11.960;2023-02-26T03:41:13;2.17;;;1.98;;
23362;SDS011;11853;48.080;11.960;2023-02-26T03:43:53;1.90;;;1.80;;
23362;SDS011;11853;48.080;11.960;2023-02-26T03:46:27;2.13;;;1.85;;
23362;SDS011;11853;48.080;11.960;2023-02-26T03:49:06;1.83;;;1.70;;
23362;SDS011;11853;48.080;11.960;2023-02-26T03:51:38;1.58;;;1.48;;
23362;SDS011;11853;48.080;11.960;2023-02-26T03:54:07;2.45;;;1.92;;
23362;SDS011;11853;48.080;11.960;2023-02-26T03:56:44;2.83;;;1.98;;
23362;SDS011;11853;48.080;11.960;2023-02-26T03:59:13;1.98;;;1.70;;
23362;SDS011;11853;48.080;11.960;2023-02-26T04:01:48;2.50;;;1.65;;
23362;SDS011;11853;48.080;11.960;2023-02-26T04:07:14;1.88;;;1.70;;
23362;SDS011;11853;48.080;11.960;2023-02-26T04:09:42;1.58;;;1.48;;
23362;SDS011;11853;48.080;11.960;2023-02-26T04:12:10;4.40;;;1.58;;
23362;SDS011;11853;48.080;11.960;2023-02-26T04:14:36;2.58;;;1.67;;
23362;SDS011;11853;48.080;11.960;2023-02-26T04:17:01;3.10;;;2.17;;
23362;SDS011;11853;48.080;11.960;2023-02-26T04:19:27;3.22;;;1.92;;
23362;SDS011;11853;48.080;11.960;2023-02-26T04:21:53;3.13;;;1.42;;
23362;SDS011;11853;48.080;11.960;2023-02-26T04:24:19;2.00;;;1.80;;
23362;SDS011;11853;48.080;11.960;2023-02-26T04:26:44;2.45;;;1.60;;
23362;SDS011;11853;48.080;11.960;2023-02-26T04:29:10;2.03;;;1.80;;
23362;SDS011;11853;48.080;11.960;2023-02-26T04:31:36;3.08;;;1.70;;
23362;SDS011;11853;48.080;11.960;2023-02-26T04:34:01;2.20;;;1.70;;
23362;SDS011;11853;48.080;11.960;2023-02-26T04:36:28;2.17;;;1.88;;
23362;SDS011;11853;48.080;11.960;2023-02-26T04:38:53;2.70;;;2.03;;
23362;SDS011;11853;48.080;11.960;2023-02-26T04:41:19;2.50;;;2.20;;
23362;SDS011;11853;48.080;11.960;2023-02-26T04:43:45;2.17;;;1.45;;
23362;SDS011;11853;48.080;11.960;2023-02-26T04:46:11;1.60;;;1.50;;
23362;SDS011;11853;48.080;11.960;2023-02-26T04:48:36;4.55;;;2.00;;
23362;SDS011;11853;48.080;11.960;2023-02-26T04:51:02;3.78;;;1.80;;
23362;SDS011;11853;48.080;11.960;2023-02-26T04:53:28;1.80;;;1.60;;
23362;SDS011;11853;48.080;11.960;2023-02-26T04:55:53;2.38;;;1.52;;
23362;SDS011;11853;48.080;11.960;2023-02-26T04:58:19;2.20;;;1.65;;
23362;SDS011;11853;48.080;11.960;2023-02-26T05:00:49;1.83;;;1.40;;
23362;SDS011;11853;48.080;11.960;2023-02-26T05:03:16;1.88;;;1.52;;
23362;SDS011;11853;48.080;11.960;2023-02-26T05:05:42;1.58;;;1.48;;
23362;SDS011;11853;48.080;11.960;2023-02-26T05:08:09;2.05;;;1.40;;
23362;SDS011;11853;48.080;11.960;2023-02-26T05:10:34;3.55;;;1.75;;
23362;SDS011;11853;48.080;11.960;2023-02-26T05:13:00;3.72;;;1.80;;
23362;SDS011;11853;48.080;11.960;2023-02-26T05:15:26;1.60;;;1.50;;
23362;SDS011;11853;48.080;11.960;2023-02-26T05:17:51;3.33;;;1.50;;
23362;SDS011;11853;48.080;11.960;2023-02-26T05:20:17;1.48;;;1.38;;
23362;SDS011;11853;48.080;11.960;2023-02-26T05:22:43;1.73;;;1.35;;
23362;SDS011;11853;48.080;11.960;2023-02-26T05:25:09;2.40;;;1.48;;
23362;SDS011;11853;48.080;11.960;2023-02-26T05:27:36;1.80;;;1.48;;
23362;SDS011;11853;48.080;11.960;2023-02-26T05:30:02;1.80;;;1.50;;
23362;SDS011;11853;48.080;11.960;2023-02-26T05:32:28;1.63;;;1.23;;
23362;SDS011;11853;48.080;11.960;2023-02-26T05:34:54;3.75;;;1.75;;
23362;SDS011;11853;48.080;11.960;2023-02-26T05:37:20;2.30;;;1.60;;
23362;SDS011;11853;48.080;11.960;2023-02-26T05:39:45;2.63;;;1.73;;
23362;SDS011;11853;48.080;11.960;2023-02-26T05:42:11;1.98;;;1.25;;
23362;SDS011;11853;48.080;11.960;2023-02-26T05:44:38;2.63;;;1.73;;
23362;SDS011;11853;48.080;11.960;2023-02-26T05:47:03;3.28;;;1.80;;
23362;SDS011;11853;48.080;11.960;2023-02-26T05:49:29;2.05;;;1.30;;
23362;SDS011;11853;48.080;11.960;2023-02-26T05:51:55;2.22;;;1.73;;
23362;SDS011;11853;48.080;11.960;2023-02-26T05:54:21;1.42;;;1.30;;
23362;SDS011;11853;48.080;11.960;2023-02-26T05:56:47;2.50;;;1.60;;
23362;SDS011;11853;48.080;11.960;2023-02-26T05:59:12;2.13;;;1.48;;
23362;SDS011;11853;48.080;11.960;2023-02-26T06:01:38;2.92;;;1.55;;
23362;SDS011;11853;48.080;11.960;2023-02-26T06:04:04;1.67;;;1.52;;
23362;SDS011;11853;48.080;11.960;2023-02-26T06:06:30;1.52;;;1.42;;
23362;SDS011;11853;48.080;11.960;2023-02-26T06:08:56;2.42;;;1.23;;
23362;SDS011;11853;48.080;11.960;2023-02-26T06:11:22;3.88;;;2.83;;
23362;SDS011;11853;48.080;11.960;2023-02-26T06:13:48;3.20;;;1.95;;
23362;SDS011;11853;48.080;11.960;2023-02-26T06:16:13;1.55;;;1.45;;
23362;SDS011;11853;48.080;11.960;2023-02-26T06:18:39;3.08;;;1.70;;
23362;SDS011;11853;48.080;11.960;2023-02-26T06:21:05;3.65;;;1.83;;
23362;SDS011;11853;48.080;11.960;2023-02-26T06:23:31;2.58;;;1.75;;
23362;SDS011;11853;48.080;11.960;2023-02-26T06:25:57;1.83;;;1.73;;
23362;SDS011;11853;48.080;11.960;2023-02-26T06:28:24;4.05;;;2.00;;
23362;SDS011;11853;48.080;11.960;2023-02-26T06:30:53;2.30;;;1.90;;
23362;SDS011;11853;48.080;11.960;2023-02-26T06:33:18;2.78;;;1.65;;
23362;SDS011;11853;48.080;11.960;2023-02-26T06:35:44;4.93;;;2.05;;
23362;SDS011;11853;48.080;11.960;2023-02-26T06:38:10;2.88;;;1.90;;
23362;SDS011;11853;48.080;11.960;2023-02-26T06:40:36;3.83;;;2.15;;
23362;SDS011;11853;48.080;11.960;2023-02-26T06:43:02;1.83;;;1.73;;
23362;SDS011;11853;48.080;11.960;2023-02-26T06:45:27;2.42;;;1.95;;
23362;SDS011;11853;48.080;11.960;2023-02-26T06:47:53;2.10;;;2.00;;
23362;SDS011;11853;48.080;11.960;2023-02-26T06:50:19;3.50;;;2.20;;
23362;SDS011;11853;48.080;11.960;2023-02-26T06:52:45;2.63;;;1.60;;
23362;SDS011;11853;48.080;11.960;2023-02-26T06:55:10;3.42;;;1.90;;
23362;SDS011;11853;48.080;11.960;2023-02-26T06:57:36;6.28;;;2.10;;
23362;SDS011;11853;48.080;11.960;2023-02-26T07:00:03;2.25;;;2.03;;
23362;SDS011;11853;48.080;11.960;2023-02-26T07:02:30;2.25;;;1.75;;
23362;SDS011;11853;48.080;11.960;2023-02-26T07:04:55;3.20;;;2.10;;
23362;SDS011;11853;48.080;11.960;2023-02-26T07:07:21;2.53;;;1.80;;
23362;SDS011;11853;48.080;11.960;2023-02-26T07:09:47;3.75;;;2.53;;
23362;SDS011;11853;48.080;11.960;2023-02-26T07:12:15;4.22;;;3.00;;
23362;SDS011;11853;48.080;11.960;2023-02-26T07:14:40;11.52;;;4.13;;
23362;SDS011;11853;48.080;11.960;2023-02-26T07:17:07;6.43;;;3.47;;
23362;SDS011;11853;48.080;11.960;2023-02-26T07:19:34;4.85;;;3.25;;
23362;SDS011;11853;48.080;11.960;2023-02-26T07:21:59;5.57;;;2.95;;
23362;SDS011;11853;48.080;11.960;2023-02-26T07:24:25;5.50;;;3.47;;
23362;SDS011;11853;48.080;11.960;2023-02-26T07:26:51;4.78;;;2.75;;
23362;SDS011;11853;48.080;11.960;2023-02-26T07:29:17;3.60;;;2.30;;
23362;SDS011;11853;48.080;11.960;2023-02-26T07:31:43;2.60;;;2.22;;
23362;SDS011;11853;48.080;11.960;2023-02-26T07:34:08;2.88;;;2.65;;
23362;SDS011;11853;48.080;11.960;2023-02-26T07:36:34;3.38;;;2.20;;
23362;SDS011;11853;48.080;11.960;2023-02-26T07:39:00;2.92;;;1.90;;
23362;SDS011;11853;48.080;11.960;2023-02-26T07:41:26;5.50;;;2.42;;
23362;SDS011;11853;48.080;11.960;2023-02-26T07:43:52;1.92;;;1.83;;
23362;SDS011;11853;48.080;11.960;2023-02-26T07:46:17;2.22;;;2.03;;
23362;SDS011;11853;48.080;11.960;2023-02-26T07:48:44;5.15;;;2.53;;
23362;SDS011;11853;48.080;11.960;2023-02-26T07:51:09;2.67;;;2.47;;
23362;SDS011;11853;48.080;11.960;2023-02-26T07:53:35;2.95;;;2.72;;
23362;SDS011;11853;48.080;11.960;2023-02-26T07:56:01;2.30;;;2.10;;
23362;SDS011;11853;48.080;11.960;2023-02-26T07:58:27;3.50;;;2.72;;
23362;SDS011;11853;48.080;11.960;2023-02-26T08:00:52;3.75;;;2.38;;
23362;SDS011;11853;48.080;11.960;2023-02-26T08:03:18;4.95;;;3.00;;
23362;SDS011;11853;48.080;11.960;2023-02-26T08:05:45;3.30;;;2.45;;
23362;SDS011;11853;48.080;11.960;2023-02-26T08:08:10;2.83;;;2.58;;
23362;SDS011;11853;48.080;11.960;2023-02-26T08:10:36;4.50;;;2.28;;
23362;SDS011;11853;48.080;11.960;2023-02-26T08:13:03;3.47;;;2.40;;
23362;SDS011;11853;48.080;11.960;2023-02-26T08:15:29;2.10;;;2.00;;
23362;SDS011;11853;48.080;11.960;2023-02-26T08:17:55;2.92;;;2.10;;
23362;SDS011;11853;48.080;11.960;2023-02-26T08:20:21;2.60;;;2.40;;
23362;SDS011;11853;48.080;11.960;2023-02-26T08:22:47;3.28;;;2.83;;
23362;SDS011;11853;48.080;11.960;2023-02-26T08:25:15;3.97;;;2.60;;
23362;SDS011;11853;48.080;11.960;2023-02-26T08:27:40;2.10;;;1.98;;
23362;SDS011;11853;48.080;11.960;2023-02-26T08:30:07;2.88;;;2.63;;
23362;SDS011;11853;48.080;11.960;2023-02-26T08:32:34;2.38;;;2.17;;
23362;SDS011;11853;48.080;11.960;2023-02-26T08:35:01;2.25;;;2.08;;
23362;SDS011;11853;48.080;11.960;2023-02-26T08:37:32;2.30;;;2.10;;
23362;SDS011;11853;48.080;11.960;2023-02-26T08:39:58;3.72;;;2.22;;
23362;SDS011;11853;48.080;11.960;2023-02-26T08:42:24;2.90;;;2.30;;
23362;SDS011;11853;48.080;11.960;2023-02-26T08:44:49;3.33;;;2.45;;
23362;SDS011;11853;48.080;11.960;2023-02-26T08:47:15;3.17;;;2.80;;
23362;SDS011;11853;48.080;11.960;2023-02-26T08:49:41;3.63;;;2.50;;
23362;SDS011;11853;48.080;11.960;2023-02-26T08:52:07;2.80;;;2.45;;
23362;SDS011;11853;48.080;11.960;2023-02-26T08:54:32;2.60;;;2.40;;
23362;SDS011;11853;48.080;11.960;2023-02-26T08:56:58;2.72;;;2.25;;
23362;SDS011;11853;48.080;11.960;2023-02-26T08:59:24;2.95;;;2.33;;
23362;SDS011;11853;48.080;11.960;2023-02-26T09:01:50;2.65;;;2.45;;
23362;SDS011;11853;48.080;11.960;2023-02-26T09:04:16;4.53;;;4.10;;
23362;SDS011;11853;48.080;11.960;2023-02-26T09:06:42;2.90;;;2.50;;
23362;SDS011;11853;48.080;11.960;2023-02-26T09:09:07;2.35;;;2.15;;
23362;SDS011;11853;48.080;11.960;2023-02-26T09:11:34;2.67;;;2.45;;
23362;SDS011;11853;48.080;11.960;2023-02-26T09:14:01;3.78;;;3.47;;
23362;SDS011;11853;48.080;11.960;2023-02-26T09:16:29;4.32;;;3.95;;
23362;SDS011;11853;48.080;11.960;2023-02-26T09:18:55;3.80;;;3.50;;
23362;SDS011;11853;48.080;11.960;2023-02-26T09:21:21;4.57;;;3.92;;
23362;SDS011;11853;48.080;11.960;2023-02-26T09:23:47;5.43;;;3.40;;
23362;SDS011;11853;48.080;11.960;2023-02-26T09:26:13;3.10;;;2.40;;
23362;SDS011;11853;48.080;11.960;2023-02-26T09:28:39;3.78;;;3.17;;
23362;SDS011;11853;48.080;11.960;2023-02-26T09:31:04;3.70;;;3.20;;
23362;SDS011;11853;48.080;11.960;2023-02-26T09:33:31;3.13;;;2.83;;
23362;SDS011;11853;48.080;11.960;2023-02-26T09:35:57;3.38;;;2.55;;
23362;SDS011;11853;48.080;11.960;2023-02-26T09:38:23;3.55;;;3.03;;
23362;SDS011;11853;48.080;11.960;2023-02-26T09:40:53;2.80;;;2.58;;
23362;SDS011;11853;48.080;11.960;2023-02-26T09:46:05;2.90;;;2.60;;
23362;SDS011;11853;48.080;11.960;2023-02-26T09:48:41;3.42;;;2.80;;
23362;SDS011;11853;48.080;11.960;2023-02-26T09:51:09;4.22;;;3.38;;
23362;SDS011;11853;48.080;11.960;2023-02-26T09:53:40;3.10;;;2.80;;
23362;SDS011;11853;48.080;11.960;2023-02-26T09:56:16;4.63;;;4.18;;
23362;SDS011;11853;48.080;11.960;2023-02-26T09:58:44;4.00;;;3.60;;
23362;SDS011;11853;48.080;11.960;2023-02-26T10:06:26;3.00;;;2.70;;
23362;SDS011;11853;48.080;11.960;2023-02-26T10:14:13;3.55;;;2.60;;
23362;SDS011;11853;48.080;11.960;2023-02-26T10:16:42;3.27;;;3.00;;
23362;SDS011;11853;48.080;11.960;2023-02-26T10:19:14;3.33;;;3.03;;
23362;SDS011;11853;48.080;11.960;2023-02-26T10:24:17;3.95;;;3.53;;
23362;SDS011;11853;48.080;11.960;2023-02-26T10:30:02;2.70;;;2.50;;
23362;SDS011;11853;48.080;11.960;2023-02-26T10:33:25;2.90;;;2.60;;
23362;SDS011;11853;48.080;11.960;2023-02-26T10:35:30;2.80;;;2.60;;
23362;SDS011;11853;48.080;11.960;2023-02-26T10:38:10;4.28;;;2.78;;
23362;SDS011;11853;48.080;11.960;2023-02-26T10:43:05;3.22;;;2.92;;
23362;SDS011;11853;48.080;11.960;2023-02-26T10:46:01;5.28;;;4.32;;
23362;SDS011;11853;48.080;11.960;2023-02-26T10:51:16;7.82;;;4.25;;
23362;SDS011;11853;48.080;11.960;2023-02-26T10:54:46;8.55;;;5.53;;
23362;SDS011;11853;48.080;11.960;2023-02-26T10:56:43;3.80;;;3.50;;
23362;SDS011;11853;48.080;11.960;2023-02-26T10:59:08;2.85;;;2.60;;
23362;SDS011;11853;48.080;11.960;2023-02-26T11:01:34;3.38;;;3.17;;
23362;SDS011;11853;48.080;11.960;2023-02-26T11:04:02;3.00;;;2.80;;
23362;SDS011;11853;48.080;11.960;2023-02-26T11:06:37;2.63;;;2.42;;
23362;SDS011;11853;48.080;11.960;2023-02-26T11:09:42;3.33;;;2.80;;
23362;SDS011;11853;48.080;11.960;2023-02-26T11:12:15;4.05;;;3.65;;
23362;SDS011;11853;48.080;11.960;2023-02-26T11:14:42;5.30;;;4.80;;
23362;SDS011;11853;48.080;11.960;2023-02-26T11:17:12;3.90;;;3.60;;
23362;SDS011;11853;48.080;11.960;2023-02-26T11:19:47;3.17;;;2.88;;
23362;SDS011;11853;48.080;11.960;2023-02-26T11:22:17;3.42;;;2.63;;
23362;SDS011;11853;48.080;11.960;2023-02-26T11:24:46;2.95;;;2.75;;
23362;SDS011;11853;48.080;11.960;2023-02-26T11:27:14;3.90;;;2.70;;
23362;SDS011;11853;48.080;11.960;2023-02-26T11:29:53;2.30;;;2.20;;
23362;SDS011;11853;48.080;11.960;2023-02-26T11:32:48;3.28;;;2.97;;
23362;SDS011;11853;48.080;11.960;2023-02-26T11:35:14;2.30;;;2.10;;
23362;SDS011;11853;48.080;11.960;2023-02-26T11:37:45;2.15;;;1.95;;
23362;SDS011;11853;48.080;11.960;2023-02-26T11:40:33;1.67;;;1.58;;
23362;SDS011;11853;48.080;11.960;2023-02-26T11:43:13;2.40;;;2.20;;
23362;SDS011;11853;48.080;11.960;2023-02-26T11:45:43;1.98;;;1.88;;
23362;SDS011;11853;48.080;11.960;2023-02-26T11:48:15;2.20;;;2.10;;
23362;SDS011;11853;48.080;11.960;2023-02-26T11:50:47;3.53;;;3.22;;
23362;SDS011;11853;48.080;11.960;2023-02-26T11:55:57;1.50;;;1.50;;
23362;SDS011;11853;48.080;11.960;2023-02-26T11:58:25;1.70;;;1.60;;
23362;SDS011;11853;48.080;11.960;2023-02-26T12:00:57;1.27;;;1.27;;
23362;SDS011;11853;48.080;11.960;2023-02-26T12:03:28;1.63;;;1.52;;
23362;SDS011;11853;48.080;11.960;2023-02-26T12:05:57;1.60;;;1.50;;
23362;SDS011;11853;48.080;11.960;2023-02-26T12:08:32;1.80;;;1.70;;
23362;SDS011;11853;48.080;11.960;2023-02-26T12:14:03;1.83;;;1.73;;
23362;SDS011;11853;48.080;11.960;2023-02-26T12:19:35;2.00;;;1.90;;
23362;SDS011;11853;48.080;11.960;2023-02-26T12:22:10;1.50;;;1.50;;
23362;SDS011;11853;48.080;11.960;2023-02-26T12:25:28;1.67;;;1.58;;
23362;SDS011;11853;48.080;11.960;2023-02-26T12:55:41;3.72;;;3.42;;
23362;SDS011;11853;48.080;11.960;2023-02-26T13:01:35;1.90;;;1.80;;
23362;SDS011;11853;48.080;11.960;2023-02-26T13:18:14;2.88;;;2.58;;
23362;SDS011;11853;48.080;11.960;2023-02-26T13:20:56;1.92;;;1.83;;
23362;SDS011;11853;48.080;11.960;2023-02-26T13:23:32;1.88;;;1.77;;
23362;SDS011;11853;48.080;11.960;2023-02-26T13:26:04;2.03;;;1.80;;
23362;SDS011;11853;48.080;11.960;2023-02-26T13:33:51;3.97;;;2.83;;
23362;SDS011;11853;48.080;11.960;2023-02-26T13:36:19;11.25;;;6.25;;
23362;SDS011;11853;48.080;11.960;2023-02-26T13:41:39;4.65;;;3.60;;
23362;SDS011;11853;48.080;11.960;2023-02-26T13:52:33;2.45;;;2.25;;
23362;SDS011;11853;48.080;11.960;2023-02-26T13:55:01;2.60;;;2.40;;
23362;SDS011;11853;48.080;11.960;2023-02-26T14:02:47;2.55;;;2.00;;
23362;SDS011;11853;48.080;11.960;2023-02-26T14:13:16;2.60;;;2.10;;
23362;SDS011;11853;48.080;11.960;2023-02-26T14:18:39;2.42;;;2.22;;
23362;SDS011;11853;48.080;11.960;2023-02-26T14:24:34;12.80;;;8.65;;
23362;SDS011;11853;48.080;11.960;2023-02-26T14:26:44;4.72;;;4.03;;
23362;SDS011;11853;48.080;11.960;2023-02-26T14:29:15;3.38;;;3.08;;
23362;SDS011;11853;48.080;11.960;2023-02-26T14:31:48;2.85;;;2.30;;
23362;SDS011;11853;48.080;11.960;2023-02-26T14:36:59;2.88;;;2.67;;
23362;SDS011;11853;48.080;11.960;2023-02-26T14:39:42;2.15;;;2.05;;
23362;SDS011;11853;48.080;11.960;2023-02-26T14:42:37;4.45;;;2.85;;
23362;SDS011;11853;48.080;11.960;2023-02-26T14:45:16;2.72;;;2.47;;
23362;SDS011;11853;48.080;11.960;2023-02-26T14:47:46;15.98;;;8.88;;
23362;SDS011;11853;48.080;11.960;2023-02-26T14:50:15;2.83;;;2.53;;
23362;SDS011;11853;48.080;11.960;2023-02-26T14:52:45;2.90;;;2.38;;
23362;SDS011;11853;48.080;11.960;2023-02-26T15:04:14;2.40;;;2.20;;
23362;SDS011;11853;48.080;11.960;2023-02-26T15:09:51;4.88;;;3.60;;
23362;SDS011;11853;48.080;11.960;2023-02-26T15:18:04;4.05;;;3.75;;
23362;SDS011;11853;48.080;11.960;2023-02-26T15:26:00;3.63;;;3.33;;
23362;SDS011;11853;48.080;11.960;2023-02-26T15:28:37;2.53;;;2.33;;
23362;SDS011;11853;48.080;11.960;2023-02-26T15:31:05;4.03;;;2.53;;
23362;SDS011;11853;48.080;11.960;2023-02-26T15:33:34;3.30;;;3.00;;
23362;SDS011;11853;48.080;11.960;2023-02-26T15:36:04;2.47;;;2.28;;
23362;SDS011;11853;48.080;11.960;2023-02-26T15:38:39;2.80;;;2.60;;
23362;SDS011;11853;48.080;11.960;2023-02-26T15:41:07;2.95;;;2.17;;
23362;SDS011;11853;48.080;11.960;2023-02-26T15:43:32;2.50;;;2.35;;
23362;SDS011;11853;48.080;11.960;2023-02-26T15:45:58;2.65;;;2.45;;
23362;SDS011;11853;48.080;11.960;2023-02-26T15:48:34;3.88;;;2.90;;
23362;SDS011;11853;48.080;11.960;2023-02-26T15:51:03;2.70;;;2.47;;
23362;SDS011;11853;48.080;11.960;2023-02-26T15:53:33;2.80;;;2.25;;
23362;SDS011;11853;48.080;11.960;2023-02-26T15:56:00;2.35;;;2.15;;
23362;SDS011;11853;48.080;11.960;2023-02-26T15:58:51;4.05;;;3.70;;
23362;SDS011;11853;48.080;11.960;2023-02-26T16:01:20;4.40;;;3.85;;
23362;SDS011;11853;48.080;11.960;2023-02-26T16:03:49;2.85;;;2.65;;
23362;SDS011;11853;48.080;11.960;2023-02-26T16:06:23;2.72;;;2.55;;
23362;SDS011;11853;48.080;11.960;2023-02-26T16:08:54;4.45;;;3.78;;
23362;SDS011;11853;48.080;11.960;2023-02-26T16:11:20;3.47;;;3.17;;
23362;SDS011;11853;48.080;11.960;2023-02-26T16:13:47;2.88;;;2.67;;
23362;SDS011;11853;48.080;11.960;2023-02-26T16:16:26;2.70;;;2.50;;
23362;SDS011;11853;48.080;11.960;2023-02-26T16:18:54;3.05;;;2.25;;
23362;SDS011;11853;48.080;11.960;2023-02-26T16:21:22;2.42;;;2.15;;
23362;SDS011;11853;48.080;11.960;2023-02-26T16:23:55;2.15;;;1.95;;
23362;SDS011;11853;48.080;11.960;2023-02-26T16:26:27;2.40;;;2.20;;
23362;SDS011;11853;48.080;11.960;2023-02-26T16:28:59;3.05;;;2.70;;
23362;SDS011;11853;48.080;11.960;2023-02-26T16:31:38;5.25;;;4.32;;
23362;SDS011;11853;48.080;11.960;2023-02-26T16:39:51;3.55;;;3.25;;
23362;SDS011;11853;48.080;11.960;2023-02-26T16:42:21;3.97;;;2.67;;
23362;SDS011;11853;48.080;11.960;2023-02-26T16:47:48;2.20;;;2.10;;
23362;SDS011;11853;48.080;11.960;2023-02-26T16:50:29;2.97;;;2.50;;
23362;SDS011;11853;48.080;11.960;2023-02-26T16:53:01;3.53;;;2.92;;
23362;SDS011;11853;48.080;11.960;2023-02-26T16:58:09;8.27;;;6.85;;
23362;SDS011;11853;48.080;11.960;2023-02-26T17:00:38;4.28;;;3.75;;
23362;SDS011;11853;48.080;11.960;2023-02-26T17:03:14;3.63;;;3.28;;
23362;SDS011;11853;48.080;11.960;2023-02-26T17:05:47;3.75;;;3.40;;
23362;SDS011;11853;48.080;11.960;2023-02-26T17:08:20;4.43;;;4.03;;
23362;SDS011;11853;48.080;11.960;2023-02-26T17:10:54;4.53;;;4.13;;
23362;SDS011;11853;48.080;11.960;2023-02-26T17:13:32;4.22;;;3.83;;
23362;SDS011;11853;48.080;11.960;2023-02-26T17:16:07;6.18;;;5.47;;
23362;SDS011;11853;48.080;11.960;2023-02-26T17:18:35;5.70;;;4.82;;
23362;SDS011;11853;48.080;11.960;2023-02-26T17:21:01;6.20;;;4.75;;
23362;SDS011;11853;48.080;11.960;2023-02-26T17:23:31;6.63;;;5.25;;
23362;SDS011;11853;48.080;11.960;2023-02-26T17:26:01;8.15;;;5.28;;
23362;SDS011;11853;48.080;11.960;2023-02-26T17:28:31;10.25;;;7.57;;
23362;SDS011;11853;48.080;11.960;2023-02-26T17:31:00;5.30;;;4.78;;
23362;SDS011;11853;48.080;11.960;2023-02-26T17:33:27;5.70;;;4.90;;
23362;SDS011;11853;48.080;11.960;2023-02-26T17:36:02;4.15;;;3.75;;
23362;SDS011;11853;48.080;11.960;2023-02-26T17:38:29;3.75;;;3.38;;
23362;SDS011;11853;48.080;11.960;2023-02-26T17:40:56;3.45;;;2.78;;
23362;SDS011;11853;48.080;11.960;2023-02-26T17:43:22;2.80;;;2.60;;
23362;SDS011;11853;48.080;11.960;2023-02-26T17:45:48;3.53;;;2.67;;
23362;SDS011;11853;48.080;11.960;2023-02-26T17:48:14;2.72;;;2.53;;
23362;SDS011;11853;48.080;11.960;2023-02-26T17:53:21;4.00;;;3.47;;
23362;SDS011;11853;48.080;11.960;2023-02-26T17:55:51;19.58;;;13.38;;
23362;SDS011;11853;48.080;11.960;2023-02-26T17:58:26;9.73;;;7.32;;
23362;SDS011;11853;48.080;11.960;2023-02-26T18:00:55;8.90;;;7.35;;
23362;SDS011;11853;48.080;11.960;2023-02-26T18:03:21;5.10;;;4.22;;
23362;SDS011;11853;48.080;11.960;2023-02-26T18:05:47;9.00;;;6.60;;
23362;SDS011;11853;48.080;11.960;2023-02-26T18:08:27;7.68;;;5.95;;
23362;SDS011;11853;48.080;11.960;2023-02-26T18:10:56;4.95;;;4.45;;
23362;SDS011;11853;48.080;11.960;2023-02-26T18:13:22;5.10;;;4.03;;
23362;SDS011;11853;48.080;11.960;2023-02-26T18:15:49;6.88;;;5.75;;
23362;SDS011;11853;48.080;11.960;2023-02-26T18:18:16;11.98;;;8.85;;